Time;durP1;ratioP1;P1;durP2;ratioP2;P2;SDS_P1;SDS_P2;PMS_P1;PMS_P2;Temp;Humidity;BMP_temperature;BMP_pressure;BME280_temperature;BME280_humidity;BME280_pressure;Samples;Min_cycle;Max_cycle;Signal;HPM_P1;HPM_P2
2023/01/10 00:00:50;;;;;;;143.57;41.73;;;;;;;-141.97;100.00;47795.88;5009952;28;20198;-84
2023/01/10 00:03:16;;;;;;;134.97;42.00;;;;;;;-141.97;100.00;47770.88;5011588;28;20583;-84
2023/01/10 00:05:42;;;;;;;140.00;41.37;;;;;;;-141.97;100.00;47788.19;5011597;28;20175;-84
2023/01/10 00:08:09;;;;;;;140.00;40.90;;;;;;;-141.97;100.00;47807.41;5011358;28;20792;-84
2023/01/10 00:10:35;;;;;;;141.03;42.30;;;;;;;-141.97;100.00;47795.88;5011035;28;20253;-84
2023/01/10 00:15:45;;;;;;;141.90;43.00;;;;;;;-141.97;100.00;47768.94;5011298;28;20674;-84
2023/01/10 00:18:11;;;;;;;170.10;49.70;;;;;;;-141.97;100.00;47780.47;5009839;28;20502;-84
2023/01/10 00:20:36;;;;;;;173.00;49.43;;;;;;;-141.97;100.00;47768.94;5009928;28;20492;-84
2023/01/10 00:23:02;;;;;;;169.00;49.00;;;;;;;-141.97;100.00;47742.03;5010946;28;20167;-84
2023/01/10 00:25:28;;;;;;;141.70;46.13;;;;;;;-141.97;100.00;47692.06;5009520;28;20191;-84
2023/01/10 00:31:00;;;;;;;138.23;43.47;;;;;;;-141.97;100.00;47765.09;4992717;28;20458;-85
2023/01/10 00:33:32;;;;;;;151.33;43.37;;;;;;;-141.97;100.00;47736.28;4992471;28;20506;-84
2023/01/10 00:35:58;;;;;;;149.53;43.37;;;;;;;-141.97;100.00;47828.53;4992580;28;20426;-84
2023/01/10 00:38:24;;;;;;;152.97;44.23;;;;;;;-141.97;100.00;47711.28;4992325;28;20810;-84
2023/01/10 00:40:49;;;;;;;153.10;44.37;;;;;;;-141.97;100.00;47697.84;4976340;28;20462;-84
2023/01/10 00:45:58;;;;;;;156.93;44.57;;;;;;;-141.97;100.00;47817.00;4992643;28;20183;-84
2023/01/10 00:48:24;;;;;;;138.43;43.10;;;;;;;-141.97;100.00;47822.78;4992104;28;20422;-84
2023/01/10 00:50:49;;;;;;;132.07;37.60;;;;;;;-141.97;100.00;47703.59;4992571;28;20160;-83
2023/01/10 00:53:15;;;;;;;140.50;41.40;;;;;;;-141.97;100.00;47768.94;4991736;28;20249;-84
2023/01/10 00:55:41;;;;;;;136.57;42.10;;;;;;;-141.97;100.00;47757.41;4975998;28;20210;-84
2023/01/10 00:58:10;;;;;;;132.23;41.17;;;;;;;-141.97;100.00;47757.41;4976034;28;20714;-82
2023/01/10 01:00:39;;;;;;;141.23;43.27;;;;;;;-141.97;100.00;47768.94;4979386;28;20187;-82
2023/01/10 01:03:05;;;;;;;140.87;41.20;;;;;;;-141.97;100.00;47818.94;4992635;28;20402;-83
2023/01/10 01:05:31;;;;;;;137.20;42.50;;;;;;;-141.97;100.00;47765.09;4991897;28;20566;-83
2023/01/10 01:07:56;;;;;;;137.63;42.20;;;;;;;-141.97;100.00;47772.78;5004700;28;20513;-84
2023/01/10 01:10:27;;;;;;;145.03;41.80;;;;;;;-141.97;100.00;47792.03;5014495;28;20608;-84
2023/01/10 01:12:58;;;;;;;144.20;43.50;;;;;;;-141.97;100.00;47828.53;5012712;28;20178;-85
2023/01/10 01:15:26;;;;;;;139.17;41.53;;;;;;;-141.97;100.00;47793.94;5012544;28;20508;-85
2023/01/10 01:17:52;;;;;;;144.20;42.97;;;;;;;-141.97;100.00;47749.72;5012675;28;20933;-85
2023/01/10 01:20:19;;;;;;;151.53;45.57;;;;;;;-141.97;100.00;47761.25;5013802;28;20425;-85
2023/01/10 01:22:44;;;;;;;146.30;43.33;;;;;;;-141.97;100.00;47742.03;5013904;28;20253;-84
2023/01/10 01:25:09;;;;;;;139.57;41.27;;;;;;;-141.97;100.00;47669.00;5015668;28;20402;-84
2023/01/10 01:27:36;;;;;;;135.07;41.77;;;;;;;-141.97;100.00;47713.22;5018657;28;20202;-84
2023/01/10 01:30:03;;;;;;;150.37;43.97;;;;;;;-141.97;100.00;47782.41;5020763;28;20194;-84
2023/01/10 01:32:28;;;;;;;142.43;44.00;;;;;;;-141.97;100.00;47713.22;5014449;28;20492;-84
2023/01/10 01:34:54;;;;;;;156.83;42.67;;;;;;;-141.97;100.00;47797.78;5018958;28;20487;-83
2023/01/10 01:37:19;;;;;;;159.37;43.63;;;;;;;-141.97;100.00;47672.84;5013592;28;20653;-84
2023/01/10 01:39:48;;;;;;;158.27;47.47;;;;;;;-141.97;100.00;47772.78;5011125;28;20260;-84
2023/01/10 01:42:40;;;;;;;169.93;47.53;;;;;;;-141.97;100.00;47799.72;5013339;28;20249;-84
2023/01/10 01:45:08;;;;;;;180.67;50.37;;;;;;;-141.97;100.00;47784.34;4972042;28;20766;-84
2023/01/10 01:47:51;;;;;;;204.60;60.40;;;;;;;-141.97;100.00;47780.47;4955967;28;20442;-84
2023/01/10 01:50:21;;;;;;;203.87;63.17;;;;;;;-141.97;100.00;47790.09;4971970;28;20511;-84
2023/01/10 01:52:50;;;;;;;236.37;77.03;;;;;;;-141.97;100.00;47807.41;4971689;28;20404;-84
2023/01/10 01:55:16;;;;;;;217.73;70.77;;;;;;;-141.97;100.00;47788.19;4971757;28;20438;-84
2023/01/10 01:57:44;;;;;;;197.90;56.70;;;;;;;-141.97;100.00;47790.09;4971813;28;20903;-84
2023/01/10 02:00:11;;;;;;;176.47;52.73;;;;;;;-141.97;100.00;47776.63;4955591;28;20180;-84
2023/01/10 02:02:45;;;;;;;165.80;51.13;;;;;;;-141.97;100.00;47861.22;4971604;28;20473;-84
2023/01/10 02:05:14;;;;;;;170.63;49.00;;;;;;;-141.97;100.00;47788.19;4971633;28;20411;-84
2023/01/10 02:07:46;;;;;;;176.90;51.70;;;;;;;-141.97;100.00;47780.47;4955206;28;20457;-85
2023/01/10 02:10:22;;;;;;;171.87;52.17;;;;;;;-141.97;100.00;47715.13;4955393;28;20435;-85
2023/01/10 02:12:49;;;;;;;190.50;52.37;;;;;;;-141.97;100.00;47749.72;4971917;28;20395;-84
2023/01/10 02:15:16;;;;;;;189.93;52.70;;;;;;;-141.97;100.00;47732.44;4955481;28;21024;-84
2023/01/10 02:17:42;;;;;;;182.27;50.80;;;;;;;-141.97;100.00;47718.97;4971557;28;20498;-84
2023/01/10 02:20:11;;;;;;;173.17;47.77;;;;;;;-141.97;100.00;47784.34;4971486;28;20411;-84
2023/01/10 02:22:52;;;;;;;194.27;50.03;;;;;;;-141.97;100.00;47801.63;5005355;28;20717;-84
2023/01/10 02:25:32;;;;;;;179.77;51.97;;;;;;;-141.97;100.00;47784.34;5014111;28;20409;-84
2023/01/10 02:28:26;;;;;;;165.20;52.00;;;;;;;-141.97;100.00;47772.78;5014272;28;20452;-84
2023/01/10 02:31:00;;;;;;;173.73;52.30;;;;;;;-141.97;100.00;47807.41;5012543;28;20402;-84
2023/01/10 02:34:12;;;;;;;163.60;50.67;;;;;;;-141.97;100.00;47742.03;5012736;28;20404;-84
2023/01/10 02:36:48;;;;;;;173.30;50.97;;;;;;;-141.97;100.00;47795.88;4971014;28;20422;-84
2023/01/10 02:39:28;;;;;;;151.30;46.37;;;;;;;-141.97;100.00;47767.03;4971702;28;20502;-84
2023/01/10 02:41:57;;;;;;;151.63;46.43;;;;;;;-141.97;100.00;47807.41;4975585;28;20507;-84
2023/01/10 02:44:31;;;;;;;170.83;51.80;;;;;;;-141.97;100.00;47817.00;4975985;28;20422;-83
2023/01/10 02:46:56;;;;;;;166.40;49.53;;;;;;;-141.97;100.00;47843.91;4960102;28;20422;-84
2023/01/10 02:49:22;;;;;;;167.20;50.43;;;;;;;-141.97;100.00;47755.50;4960264;28;20457;-83
2023/01/10 02:51:47;;;;;;;182.53;54.00;;;;;;;-141.97;100.00;47786.25;4975525;28;20259;-83
2023/01/10 02:54:19;;;;;;;189.63;52.47;;;;;;;-141.97;100.00;47770.88;4956601;28;20271;-84
2023/01/10 02:57:03;;;;;;;199.20;53.57;;;;;;;-141.97;100.00;47838.16;4955992;28;20184;-84
2023/01/10 02:59:47;;;;;;;181.87;47.03;;;;;;;-141.97;100.00;47732.44;4973361;28;20419;-84
2023/01/10 03:02:27;;;;;;;206.20;52.20;;;;;;;-141.97;100.00;47759.34;4970935;28;20462;-84
2023/01/10 03:05:19;;;;;;;185.97;52.03;;;;;;;-141.97;100.00;47753.56;4970763;28;20931;-84
2023/01/10 03:07:59;;;;;;;202.60;53.30;;;;;;;-141.97;100.00;47770.88;4993394;28;20508;-84
2023/01/10 03:10:27;;;;;;;214.07;55.93;;;;;;;-141.97;100.00;47801.63;5011115;28;21016;-84
2023/01/10 03:12:59;;;;;;;200.30;51.77;;;;;;;-141.97;100.00;47803.56;5017804;28;20465;-84
2023/01/10 03:15:29;;;;;;;213.27;55.63;;;;;;;-141.97;100.00;47792.03;5015251;28;20449;-84
2023/01/10 03:18:00;;;;;;;222.03;55.87;;;;;;;-141.97;100.00;47770.88;5012433;28;20914;-84
2023/01/10 03:20:30;;;;;;;215.57;57.90;;;;;;;-141.97;100.00;47809.31;5010421;28;20421;-84
2023/01/10 03:22:56;;;;;;;215.87;56.17;;;;;;;-141.97;100.00;47842.00;5014662;28;20500;-83
2023/01/10 03:25:26;;;;;;;252.90;59.47;;;;;;;-141.97;100.00;47795.88;5015766;28;20405;-84
2023/01/10 03:28:01;;;;;;;253.03;57.77;;;;;;;-141.97;100.00;47753.56;5014425;28;20623;-84
2023/01/10 03:30:35;;;;;;;250.67;56.10;;;;;;;-141.97;100.00;47718.97;5014841;28;20402;-85
2023/01/10 03:33:02;;;;;;;230.17;56.53;;;;;;;-141.97;100.00;47797.78;5016818;28;20858;-84
2023/01/10 03:36:03;;;;;;;245.30;58.23;;;;;;;-141.97;100.00;47767.03;5019015;28;20497;-84
2023/01/10 03:39:07;;;;;;;244.37;57.07;;;;;;;-141.97;100.00;47803.56;4977238;28;20463;-84
2023/01/10 03:41:33;;;;;;;220.53;53.30;;;;;;;-141.97;100.00;47793.94;4976164;28;20857;-84
2023/01/10 03:47:07;;;;;;;243.43;55.43;;;;;;;-141.97;100.00;47795.88;4978589;28;20186;-84
2023/01/10 03:49:36;;;;;;;251.10;57.33;;;;;;;-141.97;100.00;47776.63;4979499;28;20525;-84
2023/01/10 03:52:03;;;;;;;252.63;56.30;;;;;;;-141.97;100.00;47870.81;4977155;28;20407;-85
2023/01/10 03:54:28;;;;;;;248.37;58.07;;;;;;;-141.97;100.00;47776.63;4958375;28;20479;-84
2023/01/10 03:56:54;;;;;;;273.60;59.80;;;;;;;-141.97;100.00;47699.75;4978256;28;20944;-84
2023/01/10 03:59:23;;;;;;;240.53;61.63;;;;;;;-141.97;100.00;47768.94;4977084;28;20169;-84
2023/01/10 04:01:49;;;;;;;252.37;59.57;;;;;;;-141.97;100.00;47803.56;4970494;28;20252;-84
2023/01/10 04:04:15;;;;;;;254.60;58.97;;;;;;;-141.97;100.00;47809.31;4963784;28;20419;-84
2023/01/10 04:06:40;;;;;;;241.20;57.67;;;;;;;-141.97;100.00;47697.84;4982957;28;20417;-84
2023/01/10 04:09:06;;;;;;;241.23;58.50;;;;;;;-141.97;100.00;47807.41;4967122;28;20282;-84
2023/01/10 04:11:32;;;;;;;256.40;63.10;;;;;;;-141.97;100.00;47730.50;4966309;28;20180;-84
2023/01/10 04:13:57;;;;;;;228.53;56.67;;;;;;;-141.97;100.00;47807.41;4966019;28;20183;-84
2023/01/10 04:16:23;;;;;;;245.50;57.93;;;;;;;-141.97;100.00;47884.28;4998800;28;20187;-84
2023/01/10 04:18:48;;;;;;;264.07;62.93;;;;;;;-141.97;100.00;47801.63;4994018;28;20198;-84
2023/01/10 04:21:13;;;;;;;238.10;59.83;;;;;;;-141.97;100.00;47813.16;4996558;28;20206;-85
2023/01/10 04:23:39;;;;;;;226.20;57.53;;;;;;;-141.97;100.00;47815.09;4997482;28;20624;-83
2023/01/10 04:26:04;;;;;;;255.63;62.73;;;;;;;-141.97;100.00;47770.88;4995251;28;20163;-86
2023/01/10 04:28:30;;;;;;;253.10;65.17;;;;;;;-141.97;100.00;47690.16;4995520;28;20170;-85
2023/01/10 04:30:55;;;;;;;256.43;64.27;;;;;;;-141.97;100.00;47765.09;4995170;28;20233;-84
2023/01/10 04:33:20;;;;;;;243.83;63.87;;;;;;;-141.97;100.00;47799.72;4995130;28;20166;-85
2023/01/10 04:35:48;;;;;;;237.87;60.57;;;;;;;-141.97;100.00;47793.94;4995607;28;20159;-84
2023/01/10 04:38:14;;;;;;;249.77;66.37;;;;;;;-141.97;100.00;47767.03;4995328;28;20186;-84
2023/01/10 04:40:40;;;;;;;302.27;76.77;;;;;;;-141.97;100.00;47807.41;4995910;28;20829;-86
2023/01/10 04:43:05;;;;;;;273.00;71.43;;;;;;;-141.97;100.00;47763.19;4994192;28;20512;-83
2023/01/10 04:45:31;;;;;;;293.97;77.57;;;;;;;-141.97;100.00;47726.66;4994970;28;20226;-86
2023/01/10 04:47:58;;;;;;;304.53;77.37;;;;;;;-141.97;100.00;47838.16;4994040;28;20178;-84
2023/01/10 04:50:23;;;;;;;288.87;75.80;;;;;;;-141.97;100.00;47749.72;4996332;28;20152;-86
2023/01/10 04:52:48;;;;;;;288.37;71.03;;;;;;;-141.97;100.00;47738.19;4996327;28;20414;-85
2023/01/10 04:55:14;;;;;;;260.53;63.33;;;;;;;-141.97;100.00;47755.50;5016324;28;20646;-88
2023/01/10 04:57:39;;;;;;;242.03;56.97;;;;;;;-141.97;100.00;47868.91;5016126;28;20197;-85
2023/01/10 05:00:06;;;;;;;219.37;52.80;;;;;;;-141.97;100.00;47857.38;5015422;28;20178;-85
2023/01/10 05:02:31;;;;;;;213.83;55.83;;;;;;;-141.97;100.00;47792.03;5014445;28;20199;-87
2023/01/10 05:04:57;;;;;;;268.00;65.10;;;;;;;-141.97;100.00;47730.50;5014889;28;20422;-86
2023/01/10 05:07:22;;;;;;;251.63;65.73;;;;;;;-141.97;100.00;47826.63;5015639;28;20167;-84
2023/01/10 05:09:47;;;;;;;272.43;66.23;;;;;;;-141.97;100.00;47765.09;5013553;28;20197;-85
2023/01/10 05:12:13;;;;;;;240.23;61.67;;;;;;;-141.97;100.00;47745.88;5015608;28;20238;-89
2023/01/10 05:14:38;;;;;;;243.40;60.80;;;;;;;-141.97;100.00;47753.56;5013954;28;20558;-86
2023/01/10 05:17:03;;;;;;;235.67;58.30;;;;;;;-141.97;100.00;47732.44;5014483;28;20181;-88
2023/01/10 05:19:29;;;;;;;234.77;57.97;;;;;;;-141.97;100.00;47734.34;5032325;28;20181;-86
2023/01/10 05:21:54;;;;;;;239.07;59.43;;;;;;;-141.97;100.00;47803.56;5016880;28;20203;-85
2023/01/10 05:24:20;;;;;;;247.83;61.30;;;;;;;-141.97;100.00;47755.50;5014761;28;20186;-85
2023/01/10 05:26:45;;;;;;;233.97;59.47;;;;;;;-141.97;100.00;47797.78;5016747;28;20261;-84
2023/01/10 05:29:10;;;;;;;230.53;57.50;;;;;;;-141.97;100.00;47832.38;5015084;28;20653;-85
2023/01/10 05:31:36;;;;;;;245.20;60.83;;;;;;;-141.97;100.00;47817.00;5016240;28;20170;-86
2023/01/10 05:34:02;;;;;;;235.60;59.13;;;;;;;-141.97;100.00;47765.09;5016113;28;20209;-84
2023/01/10 05:36:27;;;;;;;256.30;67.03;;;;;;;-141.97;100.00;47863.13;5014037;28;20178;-84
2023/01/10 05:38:52;;;;;;;249.23;60.43;;;;;;;-141.97;100.00;47742.03;5015358;28;20274;-85
2023/01/10 05:41:18;;;;;;;225.47;61.23;;;;;;;-141.97;100.00;47807.41;5013251;28;20206;-84
2023/01/10 05:43:43;;;;;;;227.13;62.37;;;;;;;-141.97;100.00;47776.63;5015731;28;20250;-83
2023/01/10 05:46:09;;;;;;;267.30;76.10;;;;;;;-141.97;100.00;47851.59;5023413;28;20550;-85
2023/01/10 05:48:34;;;;;;;258.23;68.97;;;;;;;-141.97;100.00;47801.63;5017810;28;20167;-84
2023/01/10 05:51:00;;;;;;;265.07;69.77;;;;;;;-141.97;100.00;47847.75;5015925;28;20194;-84
2023/01/10 05:53:25;;;;;;;223.90;58.47;;;;;;;-141.97;100.00;47743.97;5013219;28;20234;-83
2023/01/10 05:55:53;;;;;;;250.07;62.57;;;;;;;-141.97;100.00;47726.66;5015032;28;20687;-86
2023/01/10 05:58:18;;;;;;;289.03;81.77;;;;;;;-141.97;100.00;47792.03;5015582;28;20248;-84
2023/01/10 06:00:43;;;;;;;206.63;55.50;;;;;;;-141.97;100.00;47857.38;5014283;28;20520;-84
2023/01/10 06:03:09;;;;;;;207.93;53.97;;;;;;;-141.97;100.00;47815.09;5013355;28;20285;-85
2023/01/10 06:05:34;;;;;;;227.00;56.03;;;;;;;-141.97;100.00;47866.97;5014189;28;20171;-84
2023/01/10 06:07:59;;;;;;;261.83;70.27;;;;;;;-141.97;100.00;47703.59;5014107;28;20170;-83
2023/01/10 06:10:25;;;;;;;318.20;90.90;;;;;;;-141.97;100.00;47755.50;5014561;28;20703;-86
2023/01/10 06:12:50;;;;;;;300.47;86.73;;;;;;;-141.97;100.00;47747.81;5014660;28;20155;-85
2023/01/10 06:15:16;;;;;;;331.53;95.20;;;;;;;-141.97;100.00;47801.63;5012573;28;20645;-83
2023/01/10 06:17:43;;;;;;;319.73;90.27;;;;;;;-141.97;100.00;47728.59;5013210;28;20245;-84
2023/01/10 06:20:09;;;;;;;310.70;90.70;;;;;;;-141.97;100.00;47797.78;5013841;28;20659;-82
2023/01/10 06:22:35;;;;;;;300.70;83.47;;;;;;;-141.97;100.00;47807.41;5011398;28;20471;-83
2023/01/10 06:25:00;;;;;;;257.27;62.37;;;;;;;-141.97;100.00;47880.44;5015180;28;20405;-85
2023/01/10 06:27:26;;;;;;;273.43;65.47;;;;;;;-141.97;100.00;47747.81;5013136;28;20167;-86
2023/01/10 06:29:51;;;;;;;276.10;67.53;;;;;;;-141.97;100.00;47695.91;5012065;28;20182;-84
2023/01/10 06:32:16;;;;;;;270.37;62.23;;;;;;;-141.97;100.00;47784.34;5012728;28;20158;-85
2023/01/10 06:34:42;;;;;;;316.47;79.97;;;;;;;-141.97;100.00;47757.41;5012883;28;20414;-84
2023/01/10 06:37:07;;;;;;;296.67;68.50;;;;;;;-141.97;100.00;47718.97;5001899;28;20272;-85
2023/01/10 06:39:32;;;;;;;270.60;62.23;;;;;;;-141.97;100.00;47757.41;5012094;28;20241;-85
2023/01/10 06:41:58;;;;;;;285.83;73.13;;;;;;;-141.97;100.00;47742.03;5011667;28;20202;-85
2023/01/10 06:44:23;;;;;;;321.57;74.07;;;;;;;-141.97;100.00;47786.25;5010350;28;20193;-84
2023/01/10 06:46:49;;;;;;;315.97;78.27;;;;;;;-141.97;100.00;47795.88;5011279;28;20182;-82
2023/01/10 06:49:14;;;;;;;330.23;76.87;;;;;;;-141.97;100.00;47765.09;5011182;28;20183;-84
2023/01/10 06:51:39;;;;;;;295.33;67.23;;;;;;;-141.97;100.00;47838.16;5010722;28;20260;-84
2023/01/10 06:54:05;;;;;;;328.60;75.57;;;;;;;-141.97;100.00;47780.47;5011181;28;20222;-84
2023/01/10 06:56:30;;;;;;;339.70;71.50;;;;;;;-141.97;100.00;47874.69;5011608;28;20639;-84
2023/01/10 06:58:55;;;;;;;326.97;74.00;;;;;;;-141.97;100.00;47822.78;5012958;28;20635;-84
2023/01/10 07:01:21;;;;;;;436.03;113.87;;;;;;;-141.97;100.00;47826.63;5012523;28;20210;-83
2023/01/10 07:03:47;;;;;;;407.30;107.60;;;;;;;-141.97;100.00;47853.53;5011575;28;20186;-83
2023/01/10 07:06:13;;;;;;;370.10;92.47;;;;;;;-141.97;100.00;47776.63;5009313;28;20186;-83
2023/01/10 07:08:41;;;;;;;347.80;76.70;;;;;;;-141.97;100.00;47803.56;5008616;28;20285;-83
2023/01/10 07:11:08;;;;;;;346.33;86.43;;;;;;;-141.97;100.00;47830.47;5009994;28;20429;-85
2023/01/10 07:13:34;;;;;;;358.60;84.70;;;;;;;-141.97;100.00;47805.47;5008789;28;20961;-82
2023/01/10 07:16:01;;;;;;;411.03;89.30;;;;;;;-141.97;100.00;47820.84;5008830;28;20440;-83
2023/01/10 07:18:26;;;;;;;363.60;80.20;;;;;;;-141.97;100.00;47790.09;5009745;28;20943;-85
2023/01/10 07:20:52;;;;;;;372.10;82.00;;;;;;;-141.97;100.00;47826.63;5010578;28;20525;-83
2023/01/10 07:23:17;;;;;;;297.77;65.20;;;;;;;-141.97;100.00;47809.31;5010362;28;20587;-83
2023/01/10 07:25:42;;;;;;;358.77;79.83;;;;;;;-141.97;100.00;47834.31;5010132;28;20298;-83
2023/01/10 07:28:08;;;;;;;315.83;66.03;;;;;;;-141.97;100.00;47792.03;5010099;28;20216;-83
2023/01/10 07:30:33;;;;;;;411.40;104.33;;;;;;;-141.97;100.00;47849.69;5008939;28;20189;-85
2023/01/10 07:33:02;;;;;;;295.37;57.67;;;;;;;-141.97;100.00;47911.19;5010309;28;20183;-83
2023/01/10 07:35:27;;;;;;;352.77;70.60;;;;;;;-141.97;100.00;47811.25;5000996;28;20305;-84
2023/01/10 07:37:52;;;;;;;318.33;65.13;;;;;;;-141.97;100.00;47751.66;5012296;28;20432;-84
2023/01/10 07:40:18;;;;;;;307.30;58.43;;;;;;;-141.97;100.00;47838.16;5014559;28;20247;-85
2023/01/10 07:42:43;;;;;;;300.30;61.43;;;;;;;-141.97;100.00;47757.41;5029091;28;20244;-83
2023/01/10 07:45:09;;;;;;;312.23;66.83;;;;;;;-141.97;100.00;47884.28;5014012;28;20188;-84
2023/01/10 07:47:35;;;;;;;274.43;54.20;;;;;;;-141.97;100.00;47822.78;5013184;28;20186;-84
2023/01/10 07:50:00;;;;;;;292.90;60.97;;;;;;;-141.97;100.00;47907.34;5014016;28;20182;-84
2023/01/10 07:52:26;;;;;;;289.00;57.83;;;;;;;-141.97;100.00;47786.25;5015146;28;20174;-84
2023/01/10 07:54:52;;;;;;;293.43;62.53;;;;;;;-141.97;100.00;47803.56;5014752;28;20222;-84
2023/01/10 07:57:18;;;;;;;271.27;49.60;;;;;;;-141.97;100.00;47749.72;5014873;28;20186;-84
2023/01/10 07:59:44;;;;;;;260.33;49.77;;;;;;;-141.97;100.00;47768.94;5016641;28;20460;-83
2023/01/10 08:02:10;;;;;;;260.97;56.10;;;;;;;-141.97;100.00;47807.41;5015753;28;20489;-83
2023/01/10 08:04:37;;;;;;;260.57;55.63;;;;;;;-141.97;100.00;47828.53;5015996;28;20193;-84
2023/01/10 08:07:02;;;;;;;300.57;72.93;;;;;;;-141.97;100.00;47763.19;5018612;28;21216;-82
2023/01/10 08:09:28;;;;;;;244.80;53.07;;;;;;;-141.97;100.00;47832.38;5016525;28;20422;-83
2023/01/10 08:11:53;;;;;;;302.57;77.57;;;;;;;-141.97;100.00;47830.47;5017414;28;20261;-83
2023/01/10 08:14:18;;;;;;;282.43;55.60;;;;;;;-141.97;100.00;47792.03;5015763;28;20337;-83
2023/01/10 08:16:44;;;;;;;324.63;81.10;;;;;;;-141.97;100.00;47784.34;5015509;28;20186;-84
2023/01/10 08:19:13;;;;;;;251.33;52.73;;;;;;;-141.97;100.00;47830.47;5010201;28;20733;-83
2023/01/10 08:21:39;;;;;;;328.97;68.73;;;;;;;-141.97;100.00;47820.84;5012371;28;20880;-83
2023/01/10 08:24:05;;;;;;;369.70;74.73;;;;;;;-141.97;100.00;47826.63;5014226;28;20479;-84
2023/01/10 08:26:30;;;;;;;385.23;82.20;;;;;;;-141.97;100.00;47845.84;5014200;28;20186;-84
2023/01/10 08:28:56;;;;;;;347.40;74.13;;;;;;;-141.97;100.00;47855.44;5015271;28;20435;-84
2023/01/10 08:31:21;;;;;;;340.73;75.90;;;;;;;-141.97;100.00;47803.56;5014371;28;20636;-83
2023/01/10 08:33:46;;;;;;;365.40;86.03;;;;;;;-141.97;100.00;47799.72;5014621;28;20186;-83
2023/01/10 08:36:21;;;;;;;376.53;87.70;;;;;;;-141.97;100.00;47853.53;5002150;28;20226;-84
2023/01/10 08:38:46;;;;;;;308.67;66.87;;;;;;;-141.97;100.00;47838.16;5000378;28;20655;-83
2023/01/10 08:41:12;;;;;;;365.90;87.17;;;;;;;-141.97;100.00;47790.09;5001128;28;20489;-84
2023/01/10 08:43:39;;;;;;;328.13;74.30;;;;;;;-141.97;100.00;47795.88;5013906;28;20190;-84
2023/01/10 08:46:05;;;;;;;364.50;85.20;;;;;;;-141.97;100.00;47815.09;5013405;28;20179;-84
2023/01/10 08:48:31;;;;;;;366.07;85.23;;;;;;;-141.97;100.00;47770.88;5013218;28;20432;-83
2023/01/10 08:50:56;;;;;;;351.43;81.27;;;;;;;-141.97;100.00;47899.66;5016585;28;20493;-84
2023/01/10 08:53:21;;;;;;;330.03;76.23;;;;;;;-141.97;100.00;47803.56;5030264;28;20241;-83
2023/01/10 08:55:48;;;;;;;277.03;63.63;;;;;;;-141.97;100.00;47828.53;5024547;28;20193;-83
2023/01/10 08:58:13;;;;;;;341.70;82.30;;;;;;;-141.97;100.00;47793.94;5022355;28;20785;-83
2023/01/10 09:00:39;;;;;;;331.87;82.60;;;;;;;-141.97;100.00;47830.47;5019122;28;20432;-83
2023/01/10 09:03:06;;;;;;;347.67;81.93;;;;;;;-141.97;100.00;47813.16;5025080;28;20236;-84
2023/01/10 09:05:31;;;;;;;373.40;81.63;;;;;;;-141.97;100.00;47847.75;5014998;28;20237;-84
2023/01/10 09:08:01;;;;;;;365.30;83.33;;;;;;;-141.97;100.00;47803.56;5015027;28;20433;-84
2023/01/10 09:10:28;;;;;;;308.27;71.77;;;;;;;-141.97;100.00;47813.16;5020080;28;20187;-83
2023/01/10 09:12:55;;;;;;;303.40;68.13;;;;;;;-141.97;100.00;47820.84;5027040;28;20460;-83
2023/01/10 09:15:23;;;;;;;360.93;84.97;;;;;;;-141.97;100.00;47824.69;5025978;28;20447;-82
2023/01/10 09:17:51;;;;;;;371.90;90.50;;;;;;;-141.97;100.00;47818.94;5023555;28;20432;-84
2023/01/10 09:20:17;;;;;;;252.37;58.60;;;;;;;-141.97;100.00;47824.69;5017561;28;20461;-83
2023/01/10 09:22:42;;;;;;;255.27;57.57;;;;;;;-141.97;100.00;47818.94;5013588;28;20883;-83
2023/01/10 09:25:08;;;;;;;271.60;61.93;;;;;;;-141.97;100.00;47822.78;5012404;28;20181;-83
2023/01/10 09:27:33;;;;;;;224.03;53.73;;;;;;;-141.97;100.00;47822.78;5013550;28;20188;-83
2023/01/10 09:29:59;;;;;;;220.13;54.67;;;;;;;-141.97;100.00;47801.63;5014314;28;20227;-84
2023/01/10 09:32:25;;;;;;;218.93;53.63;;;;;;;-141.97;100.00;47811.25;5012789;28;20301;-83
2023/01/10 09:34:50;;;;;;;275.83;62.40;;;;;;;-141.97;100.00;47776.63;5011831;28;20174;-84
2023/01/10 09:37:16;;;;;;;178.43;44.47;;;;;;;-141.97;100.00;47849.69;5001477;28;20669;-84
2023/01/10 09:39:41;;;;;;;259.27;60.73;;;;;;;-141.97;100.00;47865.06;5010893;28;20661;-85
2023/01/10 09:42:21;;;;;;;241.57;57.17;;;;;;;-141.97;100.00;47809.31;5012099;28;20504;-83
2023/01/10 09:45:08;;;;;;;350.20;94.97;;;;;;;-141.97;100.00;47851.59;5012872;28;20225;-83
2023/01/10 09:47:47;;;;;;;253.33;61.37;;;;;;;-141.97;100.00;47824.69;5013298;28;20428;-83
2023/01/10 09:50:14;;;;;;;248.13;59.50;;;;;;;-141.97;100.00;47834.31;5013124;28;20432;-83
2023/01/10 09:52:49;;;;;;;263.27;61.00;;;;;;;-141.97;100.00;47776.63;5013451;28;20426;-84
2023/01/10 09:55:31;;;;;;;267.57;63.37;;;;;;;-141.97;100.00;47830.47;5013752;28;20514;-84
2023/01/10 09:58:12;;;;;;;256.17;61.53;;;;;;;-141.97;100.00;47792.03;5013078;28;20429;-83
2023/01/10 10:00:43;;;;;;;285.10;74.30;;;;;;;-141.97;100.00;47851.59;5011804;28;20508;-83
2023/01/10 10:03:21;;;;;;;334.10;93.23;;;;;;;-141.97;100.00;47845.84;5011799;28;20559;-84
2023/01/10 10:05:48;;;;;;;304.13;75.47;;;;;;;-141.97;100.00;47911.19;5011595;28;20543;-84
2023/01/10 10:08:17;;;;;;;280.93;69.30;;;;;;;-141.97;100.00;47795.88;5012076;28;20433;-84
2023/01/10 10:11:24;;;;;;;297.50;76.27;;;;;;;-141.97;100.00;47842.00;5011154;28;20440;-83
2023/01/10 10:14:03;;;;;;;333.43;90.10;;;;;;;-141.97;100.00;47824.69;4950273;28;20434;-84
2023/01/10 10:16:34;;;;;;;287.43;75.03;;;;;;;-141.97;100.00;47820.84;4951244;29;20442;-84
2023/01/10 10:19:27;;;;;;;269.40;67.30;;;;;;;-141.97;100.00;47865.06;4950891;28;20468;-84
2023/01/10 10:22:11;;;;;;;292.53;74.87;;;;;;;-141.97;100.00;47792.03;4950896;28;20472;-83
2023/01/10 10:24:39;;;;;;;273.37;65.27;;;;;;;-141.97;100.00;47795.88;4934436;29;20504;-84
2023/01/10 10:27:27;;;;;;;249.53;60.00;;;;;;;-141.97;100.00;47861.22;4951971;28;20486;-83
2023/01/10 10:30:14;;;;;;;285.23;80.97;;;;;;;-141.97;100.00;47832.38;4896332;29;20439;-82
2023/01/10 10:33:00;;;;;;;375.70;119.97;;;;;;;-141.97;100.00;47838.16;4893323;29;20494;-84
2023/01/10 10:35:30;;;;;;;320.83;86.73;;;;;;;-141.97;100.00;47822.78;4893741;29;20594;-83
2023/01/10 10:38:03;;;;;;;272.67;72.40;;;;;;;-141.97;100.00;47815.09;4889806;29;21098;-83
2023/01/10 10:40:35;;;;;;;380.07;111.50;;;;;;;-141.97;100.00;47784.34;4912212;29;20430;-84
2023/01/10 10:43:14;;;;;;;269.90;70.00;;;;;;;-141.97;100.00;47838.16;4912938;29;21129;-83
2023/01/10 10:45:47;;;;;;;278.60;73.90;;;;;;;-141.97;100.00;47842.00;4896701;29;20445;-83
2023/01/10 10:48:30;;;;;;;268.83;76.13;;;;;;;-141.97;100.00;47813.16;4893496;29;20497;-84
2023/01/10 10:51:00;;;;;;;294.53;79.33;;;;;;;-141.97;100.00;47815.09;4924925;29;20570;-84
2023/01/10 10:53:27;;;;;;;302.57;86.17;;;;;;;-141.97;100.00;47788.19;4971525;28;20486;-83
2023/01/10 10:55:53;;;;;;;262.73;61.20;;;;;;;-141.97;100.00;47828.53;4961875;28;20471;-83
2023/01/10 10:58:19;;;;;;;252.53;63.70;;;;;;;-141.97;100.00;47818.94;4951558;29;20509;-84
2023/01/10 11:00:45;;;;;;;263.33;66.53;;;;;;;-141.97;100.00;47780.47;4951533;29;20475;-84
2023/01/10 11:03:39;;;;;;;309.73;79.17;;;;;;;-141.97;100.00;47817.00;4951199;29;20210;-84
2023/01/10 11:06:07;;;;;;;341.27;93.40;;;;;;;-141.97;100.00;47836.22;4935641;28;20442;-84